sensor_id;sensor_type;location;lat;lon;timestamp;temperature;humidity
38380;DHT22;38377;47.418;18.882;2022-07-10T00:01:06;18.00;99.90
38380;DHT22;38377;47.418;18.882;2022-07-10T00:03:32;18.00;99.90
38380;DHT22;38377;47.418;18.882;2022-07-10T00:05:58;18.00;99.90
38380;DHT22;38377;47.418;18.882;2022-07-10T00:08:24;18.00;99.90
38380;DHT22;38377;47.418;18.882;2022-07-10T00:10:49;17.90;99.90
38380;DHT22;38377;47.418;18.882;2022-07-10T00:13:15;17.90;99.90
38380;DHT22;38377;47.418;18.882;2022-07-10T00:15:41;17.80;99.90
38380;DHT22;38377;47.418;18.882;2022-07-10T00:18:06;17.80;99.90
38380;DHT22;38377;47.418;18.882;2022-07-10T00:20:32;17.80;99.90
38380;DHT22;38377;47.418;18.882;2022-07-10T00:22:59;17.70;99.90
38380;DHT22;38377;47.418;18.882;2022-07-10T00:25:24;17.70;99.90
38380;DHT22;38377;47.418;18.882;2022-07-10T00:27:50;17.60;99.90
38380;DHT22;38377;47.418;18.882;2022-07-10T00:30:16;17.50;99.90
38380;DHT22;38377;47.418;18.882;2022-07-10T00:32:42;17.50;99.90
38380;DHT22;38377;47.418;18.882;2022-07-10T00:35:08;17.40;99.90
38380;DHT22;38377;47.418;18.882;2022-07-10T00:37:34;17.30;99.90
38380;DHT22;38377;47.418;18.882;2022-07-10T00:40:00;17.30;99.90
38380;DHT22;38377;47.418;18.882;2022-07-10T00:42:26;17.30;99.90
38380;DHT22;38377;47.418;18.882;2022-07-10T00:44:52;17.20;99.90
38380;DHT22;38377;47.418;18.882;2022-07-10T00:47:18;17.20;99.90
38380;DHT22;38377;47.418;18.882;2022-07-10T00:49:45;17.20;99.90
38380;DHT22;38377;47.418;18.882;2022-07-10T00:52:13;17.20;99.90
38380;DHT22;38377;47.418;18.882;2022-07-10T00:54:45;17.10;99.90
38380;DHT22;38377;47.418;18.882;2022-07-10T00:57:12;17.10;99.90
38380;DHT22;38377;47.418;18.882;2022-07-10T00:59:40;17.00;99.90
38380;DHT22;38377;47.418;18.882;2022-07-10T01:02:06;17.00;99.90
38380;DHT22;38377;47.418;18.882;2022-07-10T01:04:32;17.00;99.90
38380;DHT22;38377;47.418;18.882;2022-07-10T01:06:59;17.00;99.90
38380;DHT22;38377;47.418;18.882;2022-07-10T01:09:25;17.00;99.90
38380;DHT22;38377;47.418;18.882;2022-07-10T01:11:51;16.90;99.90
38380;DHT22;38377;47.418;18.882;2022-07-10T01:14:17;16.90;99.90
38380;DHT22;38377;47.418;18.882;2022-07-10T01:16:44;16.90;99.90
38380;DHT22;38377;47.418;18.882;2022-07-10T01:19:10;16.90;99.90
38380;DHT22;38377;47.418;18.882;2022-07-10T01:21:37;16.80;99.90
38380;DHT22;38377;47.418;18.882;2022-07-10T01:24:10;16.80;99.90
38380;DHT22;38377;47.418;18.882;2022-07-10T01:26:37;16.80;99.90
38380;DHT22;38377;47.418;18.882;2022-07-10T01:29:05;16.70;99.90
38380;DHT22;38377;47.418;18.882;2022-07-10T01:31:32;16.70;99.90
38380;DHT22;38377;47.418;18.882;2022-07-10T01:34:00;16.70;99.90
38380;DHT22;38377;47.418;18.882;2022-07-10T01:36:28;16.70;99.90
38380;DHT22;38377;47.418;18.882;2022-07-10T01:38:54;16.60;99.90
38380;DHT22;38377;47.418;18.882;2022-07-10T01:41:21;16.60;99.90
38380;DHT22;38377;47.418;18.882;2022-07-10T01:43:47;16.50;99.90
38380;DHT22;38377;47.418;18.882;2022-07-10T01:46:14;16.50;99.90
38380;DHT22;38377;47.418;18.882;2022-07-10T01:48:40;16.40;99.90
38380;DHT22;38377;47.418;18.882;2022-07-10T01:51:08;16.40;99.90
38380;DHT22;38377;47.418;18.882;2022-07-10T01:53:34;16.30;99.90
38380;DHT22;38377;47.418;18.882;2022-07-10T01:56:03;16.30;99.90
38380;DHT22;38377;47.418;18.882;2022-07-10T01:58:29;16.20;99.90
38380;DHT22;38377;47.418;18.882;2022-07-10T02:00:55;16.20;99.90
38380;DHT22;38377;47.418;18.882;2022-07-10T02:03:21;16.20;99.90
38380;DHT22;38377;47.418;18.882;2022-07-10T02:06:05;16.10;99.90
38380;DHT22;38377;47.418;18.882;2022-07-10T02:08:31;16.10;99.90
38380;DHT22;38377;47.418;18.882;2022-07-10T02:10:56;16.10;99.90
38380;DHT22;38377;47.418;18.882;2022-07-10T02:13:22;16.00;99.90
38380;DHT22;38377;47.418;18.882;2022-07-10T02:15:50;16.00;99.90
38380;DHT22;38377;47.418;18.882;2022-07-10T02:18:16;16.00;99.90
38380;DHT22;38377;47.418;18.882;2022-07-10T02:20:41;15.90;99.90
38380;DHT22;38377;47.418;18.882;2022-07-10T02:23:07;15.90;99.90
38380;DHT22;38377;47.418;18.882;2022-07-10T02:25:33;15.90;99.90
38380;DHT22;38377;47.418;18.882;2022-07-10T02:27:59;15.90;99.90
38380;DHT22;38377;47.418;18.882;2022-07-10T02:30:25;15.90;99.90
38380;DHT22;38377;47.418;18.882;2022-07-10T02:32:51;15.90;99.90
38380;DHT22;38377;47.418;18.882;2022-07-10T02:35:17;15.80;99.90
38380;DHT22;38377;47.418;18.882;2022-07-10T02:37:43;15.70;99.90
38380;DHT22;38377;47.418;18.882;2022-07-10T02:40:10;15.70;99.90
38380;DHT22;38377;47.418;18.882;2022-07-10T02:42:36;15.70;99.90
38380;DHT22;38377;47.418;18.882;2022-07-10T02:45:02;15.70;99.90
38380;DHT22;38377;47.418;18.882;2022-07-10T02:47:28;15.70;99.90
38380;DHT22;38377;47.418;18.882;2022-07-10T02:49:54;15.70;99.90
38380;DHT22;38377;47.418;18.882;2022-07-10T02:52:20;15.60;99.90
38380;DHT22;38377;47.418;18.882;2022-07-10T02:54:45;15.60;99.90
38380;DHT22;38377;47.418;18.882;2022-07-10T02:57:11;15.60;99.90
38380;DHT22;38377;47.418;18.882;2022-07-10T02:59:37;15.50;99.90
38380;DHT22;38377;47.418;18.882;2022-07-10T03:02:03;15.50;99.90
38380;DHT22;38377;47.418;18.882;2022-07-10T03:04:28;15.50;99.90
38380;DHT22;38377;47.418;18.882;2022-07-10T03:06:54;15.40;99.90
38380;DHT22;38377;47.418;18.882;2022-07-10T03:09:20;15.40;99.90
38380;DHT22;38377;47.418;18.882;2022-07-10T03:11:45;15.40;99.90
38380;DHT22;38377;47.418;18.882;2022-07-10T03:14:11;15.40;99.90
38380;DHT22;38377;47.418;18.882;2022-07-10T03:16:37;15.40;99.90
38380;DHT22;38377;47.418;18.882;2022-07-10T03:19:03;15.30;99.90
38380;DHT22;38377;47.418;18.882;2022-07-10T03:21:28;15.30;99.90
38380;DHT22;38377;47.418;18.882;2022-07-10T03:23:56;15.20;99.90
38380;DHT22;38377;47.418;18.882;2022-07-10T03:26:22;15.20;99.90
38380;DHT22;38377;47.418;18.882;2022-07-10T03:28:47;15.20;99.90
38380;DHT22;38377;47.418;18.882;2022-07-10T03:31:13;15.20;99.90
38380;DHT22;38377;47.418;18.882;2022-07-10T03:33:39;15.10;99.90
38380;DHT22;38377;47.418;18.882;2022-07-10T03:36:05;15.10;99.90
38380;DHT22;38377;47.418;18.882;2022-07-10T03:38:31;15.10;99.90
38380;DHT22;38377;47.418;18.882;2022-07-10T03:40:56;15.10;99.90
38380;DHT22;38377;47.418;18.882;2022-07-10T03:43:22;15.10;99.90
38380;DHT22;38377;47.418;18.882;2022-07-10T03:45:48;15.10;99.90
38380;DHT22;38377;47.418;18.882;2022-07-10T03:48:13;15.10;99.90
38380;DHT22;38377;47.418;18.882;2022-07-10T03:50:39;15.10;99.90
38380;DHT22;38377;47.418;18.882;2022-07-10T03:53:05;15.00;99.90
38380;DHT22;38377;47.418;18.882;2022-07-10T03:55:30;15.00;99.90
38380;DHT22;38377;47.418;18.882;2022-07-10T03:57:57;15.10;99.90
38380;DHT22;38377;47.418;18.882;2022-07-10T04:00:26;15.10;99.90
38380;DHT22;38377;47.418;18.882;2022-07-10T04:03:10;15.10;99.90
38380;DHT22;38377;47.418;18.882;2022-07-10T04:05:36;15.10;99.90
38380;DHT22;38377;47.418;18.882;2022-07-10T04:08:03;15.20;99.90
38380;DHT22;38377;47.418;18.882;2022-07-10T04:10:30;15.20;99.90
38380;DHT22;38377;47.418;18.882;2022-07-10T04:12:59;15.30;99.90
38380;DHT22;38377;47.418;18.882;2022-07-10T04:15:26;15.40;99.90
38380;DHT22;38377;47.418;18.882;2022-07-10T04:17:52;15.50;99.90
38380;DHT22;38377;47.418;18.882;2022-07-10T04:20:18;15.60;99.90
38380;DHT22;38377;47.418;18.882;2022-07-10T04:22:45;15.80;99.90
38380;DHT22;38377;47.418;18.882;2022-07-10T04:25:11;16.00;99.90
38380;DHT22;38377;47.418;18.882;2022-07-10T04:27:37;16.10;99.90
38380;DHT22;38377;47.418;18.882;2022-07-10T04:30:04;16.20;99.90
38380;DHT22;38377;47.418;18.882;2022-07-10T04:32:30;16.40;99.90
38380;DHT22;38377;47.418;18.882;2022-07-10T04:34:57;16.60;99.90
38380;DHT22;38377;47.418;18.882;2022-07-10T04:37:23;17.00;99.90
38380;DHT22;38377;47.418;18.882;2022-07-10T04:39:48;17.10;99.90
38380;DHT22;38377;47.418;18.882;2022-07-10T04:42:14;17.50;99.90
38380;DHT22;38377;47.418;18.882;2022-07-10T04:44:40;18.30;99.90
38380;DHT22;38377;47.418;18.882;2022-07-10T04:47:06;19.10;99.90
38380;DHT22;38377;47.418;18.882;2022-07-10T04:49:32;18.70;99.90
38380;DHT22;38377;47.418;18.882;2022-07-10T04:51:58;19.80;99.90
38380;DHT22;38377;47.418;18.882;2022-07-10T04:54:25;20.30;99.90
38380;DHT22;38377;47.418;18.882;2022-07-10T04:56:50;20.80;99.90
38380;DHT22;38377;47.418;18.882;2022-07-10T04:59:17;20.50;99.90
38380;DHT22;38377;47.418;18.882;2022-07-10T05:01:42;21.10;99.90
38380;DHT22;38377;47.418;18.882;2022-07-10T05:04:08;21.90;99.90
38380;DHT22;38377;47.418;18.882;2022-07-10T05:06:34;22.10;99.90
38380;DHT22;38377;47.418;18.882;2022-07-10T05:09:01;21.50;99.90
38380;DHT22;38377;47.418;18.882;2022-07-10T05:11:27;20.30;99.90
38380;DHT22;38377;47.418;18.882;2022-07-10T05:13:52;19.10;99.90
38380;DHT22;38377;47.418;18.882;2022-07-10T05:16:19;18.30;99.90
38380;DHT22;38377;47.418;18.882;2022-07-10T05:18:44;18.60;99.90
38380;DHT22;38377;47.418;18.882;2022-07-10T05:21:11;20.60;99.90
38380;DHT22;38377;47.418;18.882;2022-07-10T05:23:40;21.80;99.90
38380;DHT22;38377;47.418;18.882;2022-07-10T05:26:06;22.10;99.80
38380;DHT22;38377;47.418;18.882;2022-07-10T05:28:32;23.30;97.20
38380;DHT22;38377;47.418;18.882;2022-07-10T05:30:58;24.00;94.50
38380;DHT22;38377;47.418;18.882;2022-07-10T05:33:24;24.40;92.50
38380;DHT22;38377;47.418;18.882;2022-07-10T05:35:52;24.60;91.60
38380;DHT22;38377;47.418;18.882;2022-07-10T05:38:17;23.90;91.70
38380;DHT22;38377;47.418;18.882;2022-07-10T05:40:43;23.70;91.30
38380;DHT22;38377;47.418;18.882;2022-07-10T05:43:09;22.60;93.00
38380;DHT22;38377;47.418;18.882;2022-07-10T05:45:36;20.90;96.40
38380;DHT22;38377;47.418;18.882;2022-07-10T05:48:02;20.20;99.80
38380;DHT22;38377;47.418;18.882;2022-07-10T05:50:27;19.70;99.90
38380;DHT22;38377;47.418;18.882;2022-07-10T05:52:53;19.50;99.90
38380;DHT22;38377;47.418;18.882;2022-07-10T05:55:19;19.30;99.90
38380;DHT22;38377;47.418;18.882;2022-07-10T05:57:44;19.10;99.90
38380;DHT22;38377;47.418;18.882;2022-07-10T06:00:11;18.90;99.90
38380;DHT22;38377;47.418;18.882;2022-07-10T06:02:36;18.60;99.90
38380;DHT22;38377;47.418;18.882;2022-07-10T06:05:02;18.50;99.90
38380;DHT22;38377;47.418;18.882;2022-07-10T06:07:28;18.50;99.90
38380;DHT22;38377;47.418;18.882;2022-07-10T06:09:54;18.40;99.90
38380;DHT22;38377;47.418;18.882;2022-07-10T06:12:21;18.60;99.90
38380;DHT22;38377;47.418;18.882;2022-07-10T06:14:46;18.80;99.90
38380;DHT22;38377;47.418;18.882;2022-07-10T06:17:12;18.70;99.90
38380;DHT22;38377;47.418;18.882;2022-07-10T06:19:38;19.00;99.90
38380;DHT22;38377;47.418;18.882;2022-07-10T06:22:04;20.00;99.90
38380;DHT22;38377;47.418;18.882;2022-07-10T06:24:48;20.00;99.90
38380;DHT22;38377;47.418;18.882;2022-07-10T06:27:14;19.30;99.90
38380;DHT22;38377;47.418;18.882;2022-07-10T06:29:39;19.10;99.90
38380;DHT22;38377;47.418;18.882;2022-07-10T06:32:05;19.00;99.90
38380;DHT22;38377;47.418;18.882;2022-07-10T06:34:31;19.00;99.90
38380;DHT22;38377;47.418;18.882;2022-07-10T06:36:57;19.00;99.90
38380;DHT22;38377;47.418;18.882;2022-07-10T06:39:23;18.90;99.90
38380;DHT22;38377;47.418;18.882;2022-07-10T06:41:48;19.00;99.90
38380;DHT22;38377;47.418;18.882;2022-07-10T06:44:14;19.10;99.90
38380;DHT22;38377;47.418;18.882;2022-07-10T06:46:40;19.00;99.90
38380;DHT22;38377;47.418;18.882;2022-07-10T06:49:06;19.10;99.90
38380;DHT22;38377;47.418;18.882;2022-07-10T06:51:32;19.30;99.90
38380;DHT22;38377;47.418;18.882;2022-07-10T06:53:58;19.40;99.90
38380;DHT22;38377;47.418;18.882;2022-07-10T06:56:24;19.50;99.90
38380;DHT22;38377;47.418;18.882;2022-07-10T06:58:49;19.40;99.90
38380;DHT22;38377;47.418;18.882;2022-07-10T07:01:15;19.40;99.90
38380;DHT22;38377;47.418;18.882;2022-07-10T07:03:41;19.50;99.90
38380;DHT22;38377;47.418;18.882;2022-07-10T07:06:06;19.50;99.90
38380;DHT22;38377;47.418;18.882;2022-07-10T07:08:32;19.60;99.90
38380;DHT22;38377;47.418;18.882;2022-07-10T07:11:02;19.70;99.90
38380;DHT22;38377;47.418;18.882;2022-07-10T07:13:28;19.90;99.90
38380;DHT22;38377;47.418;18.882;2022-07-10T07:15:54;20.20;99.90
38380;DHT22;38377;47.418;18.882;2022-07-10T07:18:25;20.40;99.90
38380;DHT22;38377;47.418;18.882;2022-07-10T07:21:01;20.30;99.90
38380;DHT22;38377;47.418;18.882;2022-07-10T07:23:45;20.20;99.90
38380;DHT22;38377;47.418;18.882;2022-07-10T07:26:11;20.30;99.90
38380;DHT22;38377;47.418;18.882;2022-07-10T07:28:37;20.60;99.90
38380;DHT22;38377;47.418;18.882;2022-07-10T07:31:04;21.00;96.70
38380;DHT22;38377;47.418;18.882;2022-07-10T07:33:30;21.40;95.20
38380;DHT22;38377;47.418;18.882;2022-07-10T07:35:56;21.50;93.70
38380;DHT22;38377;47.418;18.882;2022-07-10T07:38:22;21.30;92.60
38380;DHT22;38377;47.418;18.882;2022-07-10T07:40:48;21.30;92.80
38380;DHT22;38377;47.418;18.882;2022-07-10T07:43:13;21.40;92.60
38380;DHT22;38377;47.418;18.882;2022-07-10T07:45:40;21.70;91.80
38380;DHT22;38377;47.418;18.882;2022-07-10T07:48:06;21.90;91.20
38380;DHT22;38377;47.418;18.882;2022-07-10T07:50:34;21.90;90.50
38380;DHT22;38377;47.418;18.882;2022-07-10T07:53:01;22.00;91.40
38380;DHT22;38377;47.418;18.882;2022-07-10T07:55:28;22.40;91.40
38380;DHT22;38377;47.418;18.882;2022-07-10T07:57:55;22.40;90.70
38380;DHT22;38377;47.418;18.882;2022-07-10T08:00:23;22.20;92.00
38380;DHT22;38377;47.418;18.882;2022-07-10T08:02:50;22.70;90.70
38380;DHT22;38377;47.418;18.882;2022-07-10T08:05:16;22.60;89.90
38380;DHT22;38377;47.418;18.882;2022-07-10T08:07:49;22.60;90.00
38380;DHT22;38377;47.418;18.882;2022-07-10T08:10:17;22.90;88.80
38380;DHT22;38377;47.418;18.882;2022-07-10T08:12:44;22.70;88.20
38380;DHT22;38377;47.418;18.882;2022-07-10T08:15:12;22.90;87.40
38380;DHT22;38377;47.418;18.882;2022-07-10T08:17:38;23.20;85.40
38380;DHT22;38377;47.418;18.882;2022-07-10T08:20:06;23.10;83.80
38380;DHT22;38377;47.418;18.882;2022-07-10T08:22:33;23.40;83.20
38380;DHT22;38377;47.418;18.882;2022-07-10T08:24:59;23.70;79.80
38380;DHT22;38377;47.418;18.882;2022-07-10T08:27:25;23.90;79.50
38380;DHT22;38377;47.418;18.882;2022-07-10T08:29:50;23.50;80.30
38380;DHT22;38377;47.418;18.882;2022-07-10T08:32:17;22.80;80.40
38380;DHT22;38377;47.418;18.882;2022-07-10T08:34:42;22.50;80.40
38380;DHT22;38377;47.418;18.882;2022-07-10T08:37:08;22.40;82.20
38380;DHT22;38377;47.418;18.882;2022-07-10T08:39:34;23.10;81.30
38380;DHT22;38377;47.418;18.882;2022-07-10T08:42:00;23.30;76.90
38380;DHT22;38377;47.418;18.882;2022-07-10T08:44:28;23.40;77.70
38380;DHT22;38377;47.418;18.882;2022-07-10T08:46:54;23.20;77.10
38380;DHT22;38377;47.418;18.882;2022-07-10T08:49:28;23.10;76.00
38380;DHT22;38377;47.418;18.882;2022-07-10T08:52:06;23.20;75.50
38380;DHT22;38377;47.418;18.882;2022-07-10T08:54:34;23.20;75.00
38380;DHT22;38377;47.418;18.882;2022-07-10T08:57:04;23.30;71.40
38380;DHT22;38377;47.418;18.882;2022-07-10T08:59:31;23.50;70.90
38380;DHT22;38377;47.418;18.882;2022-07-10T09:01:57;23.60;70.10
38380;DHT22;38377;47.418;18.882;2022-07-10T09:04:24;23.60;71.20
38380;DHT22;38377;47.418;18.882;2022-07-10T09:06:52;23.60;70.30
38380;DHT22;38377;47.418;18.882;2022-07-10T09:09:18;23.50;68.40
38380;DHT22;38377;47.418;18.882;2022-07-10T09:11:43;23.70;70.60
38380;DHT22;38377;47.418;18.882;2022-07-10T09:14:11;23.70;69.40
38380;DHT22;38377;47.418;18.882;2022-07-10T09:16:45;23.40;71.20
38380;DHT22;38377;47.418;18.882;2022-07-10T09:19:19;23.60;70.30
38380;DHT22;38377;47.418;18.882;2022-07-10T09:21:50;23.00;71.80
38380;DHT22;38377;47.418;18.882;2022-07-10T09:24:16;23.40;71.80
38380;DHT22;38377;47.418;18.882;2022-07-10T09:29:22;23.50;67.30
38380;DHT22;38377;47.418;18.882;2022-07-10T09:34:14;23.70;69.00
38380;DHT22;38377;47.418;18.882;2022-07-10T09:36:40;24.10;68.60
38380;DHT22;38377;47.418;18.882;2022-07-10T09:39:05;24.00;69.60
38380;DHT22;38377;47.418;18.882;2022-07-10T09:41:31;24.20;69.30
38380;DHT22;38377;47.418;18.882;2022-07-10T09:44:05;24.40;70.20
38380;DHT22;38377;47.418;18.882;2022-07-10T09:46:34;24.20;70.10
38380;DHT22;38377;47.418;18.882;2022-07-10T09:51:45;24.90;70.50
38380;DHT22;38377;47.418;18.882;2022-07-10T09:54:12;24.90;67.60
38380;DHT22;38377;47.418;18.882;2022-07-10T09:56:46;24.70;67.00
38380;DHT22;38377;47.418;18.882;2022-07-10T09:59:13;24.50;67.50
38380;DHT22;38377;47.418;18.882;2022-07-10T10:01:45;24.70;68.20
38380;DHT22;38377;47.418;18.882;2022-07-10T10:04:12;24.50;68.00
38380;DHT22;38377;47.418;18.882;2022-07-10T10:06:40;24.40;66.80
38380;DHT22;38377;47.418;18.882;2022-07-10T10:09:32;24.60;67.30
38380;DHT22;38377;47.418;18.882;2022-07-10T10:12:14;24.90;64.40
38380;DHT22;38377;47.418;18.882;2022-07-10T10:14:41;24.80;62.60
38380;DHT22;38377;47.418;18.882;2022-07-10T10:17:08;24.60;64.30
38380;DHT22;38377;47.418;18.882;2022-07-10T10:19:33;24.80;64.00
38380;DHT22;38377;47.418;18.882;2022-07-10T10:22:19;25.10;62.90
38380;DHT22;38377;47.418;18.882;2022-07-10T10:24:45;24.50;63.20
38380;DHT22;38377;47.418;18.882;2022-07-10T10:27:12;24.50;61.80
38380;DHT22;38377;47.418;18.882;2022-07-10T10:29:39;24.40;61.70
38380;DHT22;38377;47.418;18.882;2022-07-10T10:32:07;24.70;62.30
38380;DHT22;38377;47.418;18.882;2022-07-10T10:34:44;24.70;62.20
38380;DHT22;38377;47.418;18.882;2022-07-10T10:37:33;24.60;63.40
38380;DHT22;38377;47.418;18.882;2022-07-10T10:40:02;24.60;62.80
38380;DHT22;38377;47.418;18.882;2022-07-10T10:42:40;25.20;61.90
38380;DHT22;38377;47.418;18.882;2022-07-10T10:45:31;24.80;62.60
38380;DHT22;38377;47.418;18.882;2022-07-10T10:50:55;24.20;63.80
38380;DHT22;38377;47.418;18.882;2022-07-10T10:53:27;24.60;64.60
38380;DHT22;38377;47.418;18.882;2022-07-10T11:06:50;24.00;64.20
38380;DHT22;38377;47.418;18.882;2022-07-10T11:12:10;24.40;63.80
38380;DHT22;38377;47.418;18.882;2022-07-10T11:14:39;24.80;60.10
38380;DHT22;38377;47.418;18.882;2022-07-10T11:17:05;24.70;59.50
38380;DHT22;38377;47.418;18.882;2022-07-10T11:19:33;24.90;61.20
38380;DHT22;38377;47.418;18.882;2022-07-10T11:25:04;24.80;60.40
38380;DHT22;38377;47.418;18.882;2022-07-10T11:30:47;22.90;65.90
38380;DHT22;38377;47.418;18.882;2022-07-10T11:33:14;21.90;66.90
38380;DHT22;38377;47.418;18.882;2022-07-10T11:35:44;21.30;69.40
38380;DHT22;38377;47.418;18.882;2022-07-10T11:38:10;21.10;70.60
38380;DHT22;38377;47.418;18.882;2022-07-10T11:40:37;21.10;71.30
38380;DHT22;38377;47.418;18.882;2022-07-10T11:43:05;21.10;72.50
38380;DHT22;38377;47.418;18.882;2022-07-10T11:45:39;21.00;72.40
38380;DHT22;38377;47.418;18.882;2022-07-10T11:48:05;21.00;74.00
38380;DHT22;38377;47.418;18.882;2022-07-10T11:50:37;20.90;75.50
38380;DHT22;38377;47.418;18.882;2022-07-10T11:53:04;21.00;76.90
38380;DHT22;38377;47.418;18.882;2022-07-10T11:55:30;20.90;76.70
38380;DHT22;38377;47.418;18.882;2022-07-10T11:58:14;21.00;77.00
38380;DHT22;38377;47.418;18.882;2022-07-10T12:00:40;21.20;75.70
38380;DHT22;38377;47.418;18.882;2022-07-10T12:03:20;21.30;75.60
38380;DHT22;38377;47.418;18.882;2022-07-10T12:05:46;22.10;73.60
38380;DHT22;38377;47.418;18.882;2022-07-10T12:08:12;22.60;72.00
38380;DHT22;38377;47.418;18.882;2022-07-10T12:10:39;23.30;68.60
38380;DHT22;38377;47.418;18.882;2022-07-10T12:13:09;23.60;65.70
38380;DHT22;38377;47.418;18.882;2022-07-10T12:15:38;23.60;63.90
38380;DHT22;38377;47.418;18.882;2022-07-10T12:18:08;23.70;64.70
38380;DHT22;38377;47.418;18.882;2022-07-10T12:20:35;23.70;63.20
38380;DHT22;38377;47.418;18.882;2022-07-10T12:23:03;23.60;64.00
38380;DHT22;38377;47.418;18.882;2022-07-10T12:25:30;23.90;61.60
38380;DHT22;38377;47.418;18.882;2022-07-10T12:27:59;23.90;60.60
38380;DHT22;38377;47.418;18.882;2022-07-10T12:30:45;23.90;61.50
38380;DHT22;38377;47.418;18.882;2022-07-10T12:33:13;23.80;62.00
38380;DHT22;38377;47.418;18.882;2022-07-10T12:38:23;23.50;61.50
38380;DHT22;38377;47.418;18.882;2022-07-10T12:40:50;23.30;63.80
38380;DHT22;38377;47.418;18.882;2022-07-10T12:43:27;22.90;64.40
38380;DHT22;38377;47.418;18.882;2022-07-10T12:46:16;22.40;65.50
38380;DHT22;38377;47.418;18.882;2022-07-10T12:49:02;22.10;65.90
38380;DHT22;38377;47.418;18.882;2022-07-10T12:51:30;21.80;68.40
38380;DHT22;38377;47.418;18.882;2022-07-10T12:53:58;21.80;69.00
38380;DHT22;38377;47.418;18.882;2022-07-10T12:56:35;21.90;68.90
38380;DHT22;38377;47.418;18.882;2022-07-10T12:59:04;22.00;66.50
38380;DHT22;38377;47.418;18.882;2022-07-10T13:01:45;22.70;66.10
38380;DHT22;38377;47.418;18.882;2022-07-10T13:04:11;22.60;65.50
38380;DHT22;38377;47.418;18.882;2022-07-10T13:06:38;22.30;66.80
38380;DHT22;38377;47.418;18.882;2022-07-10T13:09:23;22.20;65.70
38380;DHT22;38377;47.418;18.882;2022-07-10T13:11:53;22.50;66.10
38380;DHT22;38377;47.418;18.882;2022-07-10T13:14:20;22.50;64.40
38380;DHT22;38377;47.418;18.882;2022-07-10T13:16:46;22.60;63.60
38380;DHT22;38377;47.418;18.882;2022-07-10T13:19:12;22.40;63.70
38380;DHT22;38377;47.418;18.882;2022-07-10T13:21:38;22.30;64.80
38380;DHT22;38377;47.418;18.882;2022-07-10T13:24:04;22.50;64.30
38380;DHT22;38377;47.418;18.882;2022-07-10T13:26:32;22.40;63.00
38380;DHT22;38377;47.418;18.882;2022-07-10T13:28:58;22.30;62.60
38380;DHT22;38377;47.418;18.882;2022-07-10T13:31:24;22.30;62.40
38380;DHT22;38377;47.418;18.882;2022-07-10T13:33:50;22.70;62.30
38380;DHT22;38377;47.418;18.882;2022-07-10T13:36:16;22.90;61.80
38380;DHT22;38377;47.418;18.882;2022-07-10T13:38:41;22.90;59.80
38380;DHT22;38377;47.418;18.882;2022-07-10T13:41:08;22.90;60.90
38380;DHT22;38377;47.418;18.882;2022-07-10T13:43:33;22.80;61.10
38380;DHT22;38377;47.418;18.882;2022-07-10T13:46:01;23.10;60.80
38380;DHT22;38377;47.418;18.882;2022-07-10T13:48:28;23.50;60.50
38380;DHT22;38377;47.418;18.882;2022-07-10T13:50:56;23.90;60.70
38380;DHT22;38377;47.418;18.882;2022-07-10T13:53:23;24.00;62.10
38380;DHT22;38377;47.418;18.882;2022-07-10T13:55:48;24.50;61.40
38380;DHT22;38377;47.418;18.882;2022-07-10T13:58:15;24.70;60.00
38380;DHT22;38377;47.418;18.882;2022-07-10T14:00:41;24.10;60.10
38380;DHT22;38377;47.418;18.882;2022-07-10T14:03:07;24.00;60.40
38380;DHT22;38377;47.418;18.882;2022-07-10T14:05:33;24.20;60.50
38380;DHT22;38377;47.418;18.882;2022-07-10T14:07:59;24.30;57.70
38380;DHT22;38377;47.418;18.882;2022-07-10T14:10:26;23.90;56.60
38380;DHT22;38377;47.418;18.882;2022-07-10T14:12:55;23.90;57.70
38380;DHT22;38377;47.418;18.882;2022-07-10T14:15:21;23.20;59.10
38380;DHT22;38377;47.418;18.882;2022-07-10T14:17:47;22.60;61.20
38380;DHT22;38377;47.418;18.882;2022-07-10T14:20:14;22.10;61.90
38380;DHT22;38377;47.418;18.882;2022-07-10T14:22:39;22.00;62.70
38380;DHT22;38377;47.418;18.882;2022-07-10T14:25:06;22.50;61.00
38380;DHT22;38377;47.418;18.882;2022-07-10T14:27:34;22.80;60.60
38380;DHT22;38377;47.418;18.882;2022-07-10T14:29:59;23.10;59.90
38380;DHT22;38377;47.418;18.882;2022-07-10T14:32:25;23.10;57.70
38380;DHT22;38377;47.418;18.882;2022-07-10T14:34:51;23.10;57.00
38380;DHT22;38377;47.418;18.882;2022-07-10T14:37:17;23.40;56.50
38380;DHT22;38377;47.418;18.882;2022-07-10T14:39:42;23.30;55.20
38380;DHT22;38377;47.418;18.882;2022-07-10T14:42:08;23.30;55.60
38380;DHT22;38377;47.418;18.882;2022-07-10T14:44:37;23.20;55.20
38380;DHT22;38377;47.418;18.882;2022-07-10T14:47:03;23.00;55.10
38380;DHT22;38377;47.418;18.882;2022-07-10T14:49:29;22.90;55.30
38380;DHT22;38377;47.418;18.882;2022-07-10T14:51:55;22.50;55.80
38380;DHT22;38377;47.418;18.882;2022-07-10T14:54:21;22.00;57.40
38380;DHT22;38377;47.418;18.882;2022-07-10T14:56:47;22.00;57.70
38380;DHT22;38377;47.418;18.882;2022-07-10T14:59:13;22.10;57.00
38380;DHT22;38377;47.418;18.882;2022-07-10T15:01:39;22.40;56.50
38380;DHT22;38377;47.418;18.882;2022-07-10T15:04:05;22.50;56.90
38380;DHT22;38377;47.418;18.882;2022-07-10T15:06:30;22.60;56.50
38380;DHT22;38377;47.418;18.882;2022-07-10T15:08:57;22.20;57.40
38380;DHT22;38377;47.418;18.882;2022-07-10T15:11:23;21.90;58.00
38380;DHT22;38377;47.418;18.882;2022-07-10T15:13:52;22.00;56.90
38380;DHT22;38377;47.418;18.882;2022-07-10T15:16:27;22.10;56.70
38380;DHT22;38377;47.418;18.882;2022-07-10T15:18:53;22.20;54.70
38380;DHT22;38377;47.418;18.882;2022-07-10T15:21:19;22.30;55.50
38380;DHT22;38377;47.418;18.882;2022-07-10T15:23:44;22.40;54.20
38380;DHT22;38377;47.418;18.882;2022-07-10T15:26:10;22.40;53.30
38380;DHT22;38377;47.418;18.882;2022-07-10T15:28:37;22.40;53.70
38380;DHT22;38377;47.418;18.882;2022-07-10T15:31:03;22.40;54.00
38380;DHT22;38377;47.418;18.882;2022-07-10T15:33:32;22.40;54.70
38380;DHT22;38377;47.418;18.882;2022-07-10T15:35:58;22.40;53.70
38380;DHT22;38377;47.418;18.882;2022-07-10T15:38:24;22.50;53.30
38380;DHT22;38377;47.418;18.882;2022-07-10T15:40:50;22.60;52.90
38380;DHT22;38377;47.418;18.882;2022-07-10T15:43:15;22.60;53.00
38380;DHT22;38377;47.418;18.882;2022-07-10T15:45:41;22.30;53.60
38380;DHT22;38377;47.418;18.882;2022-07-10T15:48:07;22.30;54.00
38380;DHT22;38377;47.418;18.882;2022-07-10T15:50:32;22.30;53.80